createdAt,value
2019-03-01T00:01:08.018Z,37.60
2019-03-01T00:03:37.654Z,40.07
2019-03-01T00:06:23.869Z,39.90
2019-03-01T00:09:16.356Z,43.93
2019-03-01T00:12:45.462Z,42.33
2019-03-01T00:15:54.447Z,41.97
2019-03-01T00:18:59.241Z,45.00
2019-03-01T00:22:10.212Z,45.17
2019-03-01T00:25:25.527Z,42.27
2019-03-01T00:28:20.961Z,48.23
2019-03-01T00:31:08.829Z,50.83
2019-03-01T00:34:26.134Z,47.70
2019-03-01T00:37:36.942Z,49.03
2019-03-01T00:40:37.804Z,49.27
2019-03-01T00:43:38.097Z,49.57
2019-03-01T00:46:08.498Z,51.13
2019-03-01T00:48:38.579Z,51.87
2019-03-01T00:51:08.239Z,52.90
2019-03-01T00:53:38.220Z,49.70
2019-03-01T00:56:10.726Z,52.33
2019-03-01T00:58:40.915Z,53.40
2019-03-01T01:01:11.668Z,52.93
2019-03-01T01:03:41.653Z,51.93
2019-03-01T01:06:13.380Z,52.57
2019-03-01T01:08:43.643Z,54.03
2019-03-01T01:11:13.817Z,52.40
2019-03-01T01:13:43.846Z,56.90
2019-03-01T01:16:16.083Z,56.13
2019-03-01T01:18:48.172Z,56.77
2019-03-01T01:21:17.940Z,57.70
2019-03-01T01:23:49.768Z,57.73
2019-03-01T01:26:21.138Z,59.03
2019-03-01T01:28:51.159Z,61.07
2019-03-01T01:31:21.375Z,54.77
2019-03-01T01:33:50.974Z,55.83
2019-03-01T01:36:21.502Z,57.23
2019-03-01T01:38:53.753Z,55.10
2019-03-01T01:41:23.739Z,60.97
2019-03-01T01:43:56.247Z,60.43
2019-03-01T01:46:25.782Z,57.17
2019-03-01T01:48:55.704Z,57.67
2019-03-01T01:51:27.696Z,63.97
2019-03-01T01:53:58.683Z,60.93
2019-03-01T01:56:32.393Z,59.40
2019-03-01T01:59:02.240Z,58.20
2019-03-01T02:01:31.831Z,56.73
2019-03-01T02:04:03.920Z,55.00
2019-03-01T02:06:33.461Z,58.80
2019-03-01T02:09:03.535Z,57.60
2019-03-01T02:11:33.072Z,60.10
2019-03-01T02:14:03.288Z,59.40
2019-03-01T02:16:32.962Z,56.33
2019-03-01T02:19:03.795Z,63.17
2019-03-01T02:21:34.999Z,60.77
2019-03-01T02:24:07.255Z,60.47
2019-03-01T02:26:37.247Z,65.07
2019-03-01T02:29:07.759Z,59.30
2019-03-01T02:31:38.697Z,60.50
2019-03-01T02:34:08.296Z,60.93
2019-03-01T02:36:38.564Z,60.80
2019-03-01T02:39:08.522Z,64.03
2019-03-01T02:41:38.595Z,59.30
2019-03-01T02:44:09.854Z,61.50
2019-03-01T02:46:41.267Z,60.03
2019-03-01T02:49:14.423Z,61.07
2019-03-01T02:51:46.085Z,56.80
2019-03-01T02:54:16.228Z,56.30
2019-03-01T02:56:46.750Z,56.10
2019-03-01T02:59:17.045Z,54.07
2019-03-01T03:01:47.245Z,60.27
2019-03-01T03:04:18.579Z,53.03
2019-03-01T03:07:06.321Z,56.40
2019-03-01T03:09:36.381Z,58.90
2019-03-01T03:12:06.943Z,55.83
2019-03-01T03:14:36.992Z,49.90
2019-03-01T03:17:07.818Z,53.63
2019-03-01T03:19:37.727Z,57.90
2019-03-01T03:22:09.297Z,56.97
2019-03-01T03:24:38.640Z,55.67
2019-03-01T03:27:08.845Z,57.37
2019-03-01T03:29:38.946Z,49.10
2019-03-01T03:32:08.819Z,54.33
2019-03-01T03:34:39.540Z,57.00
2019-03-01T03:37:11.108Z,60.03
2019-03-01T03:39:42.563Z,57.10
2019-03-01T03:42:12.379Z,58.93
2019-03-01T03:44:42.636Z,57.67
2019-03-01T03:47:12.723Z,58.10
2019-03-01T03:49:45.222Z,58.60
2019-03-01T03:52:15.313Z,55.93
2019-03-01T03:54:45.915Z,53.20
2019-03-01T03:57:15.479Z,55.00
2019-03-01T03:59:46.085Z,55.53
2019-03-01T04:02:18.060Z,55.20
2019-03-01T04:04:47.748Z,54.77
2019-03-01T04:07:17.964Z,54.97
2019-03-01T04:09:48.157Z,57.83
2019-03-01T04:12:20.662Z,54.80
2019-03-01T04:14:50.659Z,55.63
2019-03-01T04:17:22.063Z,55.27
2019-03-01T04:19:52.248Z,45.30
2019-03-01T04:22:21.995Z,52.40
2019-03-01T04:24:53.582Z,49.30
2019-03-01T04:27:24.387Z,52.47
2019-03-01T04:29:55.975Z,51.57
2019-03-01T04:32:26.651Z,50.60
2019-03-01T04:34:56.774Z,54.30
2019-03-01T04:37:26.728Z,55.80
2019-03-01T04:39:58.162Z,54.23
2019-03-01T04:42:28.221Z,52.43
2019-03-01T04:44:58.689Z,53.00
2019-03-01T04:47:28.290Z,48.47
2019-03-01T04:50:00.899Z,46.70
2019-03-01T04:52:38.638Z,47.50
2019-03-01T04:55:11.360Z,46.10
2019-03-01T04:57:42.133Z,46.67
2019-03-01T05:00:15.483Z,50.80
2019-03-01T05:02:47.159Z,49.80
2019-03-01T05:05:19.226Z,50.87
2019-03-01T05:07:48.931Z,50.10
2019-03-01T05:10:18.847Z,52.77
2019-03-01T05:12:48.964Z,51.27
2019-03-01T05:15:22.120Z,55.70
2019-03-01T05:17:52.154Z,52.20
2019-03-01T05:20:23.638Z,54.37
2019-03-01T05:22:53.609Z,56.80
2019-03-01T05:25:26.230Z,54.67
2019-03-01T05:27:57.979Z,46.47
2019-03-01T05:30:28.441Z,51.37
2019-03-01T05:33:01.932Z,52.47
2019-03-01T05:35:32.100Z,48.23
2019-03-01T05:38:02.826Z,49.50
2019-03-01T05:40:32.445Z,45.63
2019-03-01T05:43:08.533Z,49.73
2019-03-01T05:45:35.418Z,52.47
2019-03-01T05:48:07.358Z,48.77
2019-03-01T05:50:37.847Z,52.30
2019-03-01T05:53:07.568Z,53.10
2019-03-01T05:55:38.530Z,55.83
2019-03-01T05:58:30.010Z,51.27
2019-03-01T06:01:12.839Z,54.83
2019-03-01T06:04:19.711Z,51.53
2019-03-01T06:07:29.865Z,56.10
2019-03-01T06:10:32.902Z,49.37
2019-03-01T06:13:39.828Z,48.60
2019-03-01T06:16:34.825Z,48.57
2019-03-01T06:19:19.580Z,46.07
2019-03-01T06:22:35.494Z,45.20
2019-03-01T06:25:28.756Z,44.20
2019-03-01T06:28:20.245Z,47.40
2019-03-01T06:31:07.477Z,40.20
2019-03-01T06:33:59.903Z,43.60
2019-03-01T06:36:56.077Z,40.73
2019-03-01T06:40:23.436Z,46.00
2019-03-01T06:43:19.713Z,42.50
2019-03-01T06:46:26.088Z,41.60
2019-03-01T06:49:10.697Z,44.13
2019-03-01T06:51:40.628Z,42.10
2019-03-01T06:54:11.862Z,43.00
2019-03-01T06:56:44.627Z,41.30
2019-03-01T06:59:16.303Z,37.73
2019-03-01T07:01:48.490Z,36.77
2019-03-01T07:04:20.595Z,36.30
2019-03-01T07:06:51.531Z,41.03
2019-03-01T07:09:23.217Z,34.40
2019-03-01T07:11:54.192Z,35.50
2019-03-01T07:14:25.419Z,36.00
2019-03-01T07:16:58.290Z,33.40
2019-03-01T07:19:27.998Z,36.63
2019-03-01T07:21:59.175Z,34.80
2019-03-01T07:24:29.404Z,35.57
2019-03-01T07:27:00.328Z,30.10
2019-03-01T07:29:30.430Z,31.60
2019-03-01T07:32:00.146Z,30.80
2019-03-01T07:34:30.052Z,31.30
2019-03-01T07:37:01.664Z,30.67
2019-03-01T07:39:33.173Z,32.67
2019-03-01T07:42:05.604Z,33.60
2019-03-01T07:44:38.511Z,34.90
2019-03-01T07:47:10.371Z,32.20
2019-03-01T07:49:45.985Z,31.50
2019-03-01T07:52:16.153Z,30.17
2019-03-01T07:54:49.459Z,29.70
2019-03-01T07:57:18.446Z,28.10
2019-03-01T07:59:49.174Z,28.33
2019-03-01T08:02:20.946Z,28.27
2019-03-01T08:04:51.699Z,28.27
2019-03-01T08:07:23.610Z,30.47
2019-03-01T08:09:56.082Z,31.37
2019-03-01T08:12:26.378Z,29.67
2019-03-01T08:14:56.598Z,30.80
2019-03-01T08:17:31.589Z,30.50
2019-03-01T08:20:01.310Z,29.63
2019-03-01T08:22:40.843Z,28.70
2019-03-01T08:25:09.240Z,29.47
2019-03-01T08:27:42.031Z,28.10
2019-03-01T08:30:16.838Z,30.63
2019-03-01T08:32:47.291Z,31.37
2019-03-01T08:35:16.832Z,29.60
2019-03-01T08:37:49.777Z,26.03
2019-03-01T08:40:19.300Z,26.40
2019-03-01T08:42:51.169Z,27.63
2019-03-01T08:45:21.108Z,25.27
2019-03-01T08:47:50.788Z,27.63
2019-03-01T08:50:21.090Z,27.20
2019-03-01T08:52:54.004Z,27.93
2019-03-01T08:55:26.088Z,24.87
2019-03-01T08:57:59.420Z,25.03
2019-03-01T09:00:30.713Z,24.13
2019-03-01T09:03:04.982Z,24.03
2019-03-01T09:05:35.225Z,26.83
2019-03-01T09:08:08.777Z,26.03
2019-03-01T09:10:39.009Z,23.17
2019-03-01T09:13:09.425Z,24.27
2019-03-01T09:15:39.982Z,22.30
2019-03-01T09:18:11.567Z,25.03
2019-03-01T09:20:41.584Z,25.00
2019-03-01T09:23:22.880Z,25.50
2019-03-01T09:25:44.664Z,24.30
2019-03-01T09:28:17.836Z,24.63
2019-03-01T09:30:50.594Z,21.67
2019-03-01T09:33:42.232Z,21.13
2019-03-01T09:36:38.157Z,24.03
2019-03-01T09:39:10.177Z,18.83
2019-03-01T09:41:41.525Z,20.40
2019-03-01T09:44:11.743Z,18.30
2019-03-01T09:46:42.222Z,20.97
2019-03-01T09:49:12.806Z,23.73
2019-03-01T09:51:49.185Z,22.33
2019-03-01T09:54:20.363Z,21.47
2019-03-01T09:56:50.015Z,22.10
2019-03-01T09:59:28.768Z,18.00
2019-03-01T10:01:59.053Z,20.40
2019-03-01T10:04:30.984Z,15.23
2019-03-01T10:07:06.938Z,20.23
2019-03-01T10:09:40.955Z,16.23
2019-03-01T10:12:12.143Z,16.40
2019-03-01T10:14:44.517Z,16.37
2019-03-01T10:17:20.375Z,14.60
2019-03-01T10:19:51.207Z,12.73
2019-03-01T10:22:24.455Z,12.33
2019-03-01T10:24:55.434Z,12.50
2019-03-01T10:27:27.943Z,14.70
2019-03-01T10:30:02.855Z,15.20
2019-03-01T10:32:34.615Z,13.00
2019-03-01T10:35:06.114Z,10.90
2019-03-01T10:37:36.926Z,13.20
2019-03-01T10:40:11.066Z,13.87
2019-03-01T10:42:41.112Z,15.13
2019-03-01T10:45:20.905Z,10.67
2019-03-01T10:47:52.875Z,13.50
2019-03-01T10:50:25.864Z,14.20
2019-03-01T10:52:56.406Z,13.70
2019-03-01T10:55:29.739Z,13.47
2019-03-01T10:58:01.639Z,12.63
2019-03-01T11:00:31.898Z,10.53
2019-03-01T11:03:02.250Z,11.00
2019-03-01T11:05:35.540Z,15.53
2019-03-01T11:08:05.475Z,14.83
2019-03-01T11:10:36.887Z,11.70
2019-03-01T11:13:08.034Z,11.43
2019-03-01T11:15:40.932Z,12.40
2019-03-01T11:18:12.679Z,11.73
2019-03-01T11:20:43.884Z,11.67
2019-03-01T11:23:27.338Z,10.63
2019-03-01T11:26:07.888Z,11.30
2019-03-01T11:31:44.810Z,11.07
2019-03-01T11:34:15.701Z,11.80
2019-03-01T11:36:46.868Z,12.03
2019-03-01T11:39:38.672Z,12.33
2019-03-01T11:42:08.546Z,13.30
2019-03-01T11:44:48.566Z,12.23
2019-03-01T11:47:21.301Z,11.73
2019-03-01T11:50:27.587Z,14.37
2019-03-01T11:53:10.954Z,14.60
2019-03-01T11:55:42.549Z,13.10
2019-03-01T11:58:12.725Z,12.00
2019-03-01T12:00:52.101Z,11.93
2019-03-01T12:03:18.738Z,11.07
2019-03-01T12:05:48.303Z,8.67
2019-03-01T12:08:19.019Z,9.80
2019-03-01T12:10:49.233Z,11.93
2019-03-01T12:13:20.771Z,10.60
2019-03-01T12:15:52.453Z,11.43
2019-03-01T12:18:25.619Z,11.50
2019-03-01T12:20:57.081Z,11.97
2019-03-01T12:23:27.169Z,11.93
2019-03-01T12:25:59.616Z,12.93
2019-03-01T12:28:31.847Z,11.60
2019-03-01T12:31:02.722Z,11.70
2019-03-01T12:33:33.278Z,11.37
2019-03-01T12:36:09.688Z,12.63
2019-03-01T12:38:46.885Z,11.27
2019-03-01T12:41:18.044Z,11.37
2019-03-01T12:43:56.736Z,11.83
2019-03-01T12:46:30.337Z,10.83
2019-03-01T12:49:01.679Z,11.57
2019-03-01T12:51:33.004Z,11.83
2019-03-01T12:54:08.397Z,12.50
2019-03-01T12:56:39.206Z,11.73
2019-03-01T12:59:12.148Z,12.90
2019-03-01T13:01:44.078Z,11.20
2019-03-01T13:04:15.606Z,12.40
2019-03-01T13:06:46.012Z,10.97
2019-03-01T13:09:17.339Z,12.40
2019-03-01T13:11:48.632Z,11.07
2019-03-01T13:14:20.057Z,12.23
2019-03-01T13:16:50.437Z,10.10
2019-03-01T13:19:23.298Z,12.93
2019-03-01T13:21:55.554Z,12.57
2019-03-01T13:24:29.351Z,10.40
2019-03-01T13:27:02.330Z,10.37
2019-03-01T13:29:36.903Z,11.50
2019-03-01T13:32:09.122Z,11.90
2019-03-01T13:34:40.131Z,10.40
2019-03-01T13:37:15.201Z,12.50
2019-03-01T13:39:44.905Z,11.83
2019-03-01T13:42:14.201Z,12.27
2019-03-01T13:44:44.350Z,12.23
2019-03-01T13:47:14.968Z,11.87
2019-03-01T13:49:45.232Z,11.40
2019-03-01T13:52:16.604Z,13.20
2019-03-01T13:54:47.055Z,11.30
2019-03-01T13:57:17.042Z,11.67
2019-03-01T13:59:46.697Z,11.77
2019-03-01T14:02:17.122Z,12.10
2019-03-01T14:04:47.415Z,12.27
2019-03-01T14:07:17.897Z,12.17
2019-03-01T14:09:47.499Z,11.70
2019-03-01T14:12:20.214Z,12.73
2019-03-01T14:14:49.936Z,12.20
2019-03-01T14:17:24.234Z,12.80
2019-03-01T14:19:53.211Z,12.87
2019-03-01T14:22:24.076Z,11.47
2019-03-01T14:24:55.895Z,12.80
2019-03-01T14:27:26.354Z,12.07
2019-03-01T14:29:58.498Z,12.00
2019-03-01T14:32:28.831Z,11.83
2019-03-01T14:35:02.106Z,10.63
2019-03-01T14:37:32.373Z,12.17
2019-03-01T14:40:14.890Z,11.87
2019-03-01T14:42:47.498Z,9.80
2019-03-01T14:45:19.929Z,11.00
2019-03-01T14:47:52.539Z,8.87
2019-03-01T14:50:24.925Z,5.50
2019-03-01T14:52:58.437Z,4.53
2019-03-01T14:55:32.594Z,5.30
2019-03-01T14:58:09.888Z,4.60
2019-03-01T15:01:09.613Z,3.77
2019-03-01T15:03:42.766Z,3.47
2019-03-01T15:06:15.399Z,2.40
2019-03-01T15:08:45.416Z,2.90
2019-03-01T15:11:20.902Z,2.60
2019-03-01T15:13:52.866Z,2.13
2019-03-01T15:16:22.483Z,2.40
2019-03-01T15:18:55.703Z,2.60
2019-03-01T15:21:26.539Z,2.57
2019-03-01T15:24:00.430Z,3.00
2019-03-01T15:26:30.405Z,2.30
2019-03-01T15:29:01.459Z,2.50
2019-03-01T15:31:33.692Z,2.53
2019-03-01T15:34:05.051Z,2.57
2019-03-01T15:36:37.590Z,2.87
2019-03-01T15:39:09.858Z,2.80
2019-03-01T15:41:42.134Z,2.67
2019-03-01T15:44:12.150Z,3.53
2019-03-01T15:46:41.867Z,4.10
2019-03-01T15:49:15.229Z,3.90
2019-03-01T15:51:45.523Z,3.50
2019-03-01T15:54:20.182Z,3.70
2019-03-01T15:56:53.227Z,2.60
2019-03-01T15:59:23.226Z,2.90
2019-03-01T16:01:53.522Z,2.77
2019-03-01T16:04:24.985Z,2.50
2019-03-01T16:06:56.523Z,2.80
2019-03-01T16:09:27.082Z,2.53
2019-03-01T16:11:57.615Z,2.10
2019-03-01T16:14:27.775Z,2.80
2019-03-01T16:16:58.886Z,2.13
2019-03-01T16:19:29.026Z,2.27
2019-03-01T16:22:00.990Z,3.97
2019-03-01T16:24:32.211Z,2.90
2019-03-01T16:27:02.665Z,2.33
2019-03-01T16:29:33.211Z,1.90
2019-03-01T16:32:07.971Z,1.83
2019-03-01T16:34:41.297Z,2.90
2019-03-01T16:37:12.078Z,2.40
2019-03-01T16:39:42.535Z,1.80
2019-03-01T16:42:14.537Z,2.30
2019-03-01T16:44:50.359Z,2.20
2019-03-01T16:47:20.497Z,2.40
2019-03-01T16:49:50.204Z,3.03
2019-03-01T16:52:22.648Z,4.20
2019-03-01T16:54:54.799Z,3.20
2019-03-01T16:57:24.893Z,2.97
2019-03-01T16:59:54.890Z,3.37
2019-03-01T17:02:24.840Z,2.70
2019-03-01T17:04:55.428Z,2.73
2019-03-01T17:07:28.660Z,3.33
2019-03-01T17:10:02.065Z,3.17
2019-03-01T17:12:32.147Z,3.13
2019-03-01T17:15:02.285Z,3.33
2019-03-01T17:17:33.104Z,3.93
2019-03-01T17:20:04.082Z,4.13
2019-03-01T17:22:34.615Z,3.47
2019-03-01T17:25:04.488Z,4.20
2019-03-01T17:27:36.728Z,3.57
2019-03-01T17:30:11.124Z,4.03
2019-03-01T17:32:41.114Z,3.80
2019-03-01T17:35:11.420Z,3.50
2019-03-01T17:37:41.066Z,3.10
2019-03-01T17:40:11.792Z,4.07
2019-03-01T17:42:42.313Z,3.73
2019-03-01T17:45:17.302Z,4.47
2019-03-01T17:47:46.281Z,4.53
2019-03-01T17:50:17.124Z,3.20
2019-03-01T17:52:46.951Z,3.10
2019-03-01T17:55:17.853Z,3.13
2019-03-01T17:57:50.199Z,3.07
2019-03-01T18:00:25.403Z,2.80
2019-03-01T18:02:56.299Z,3.67
2019-03-01T18:05:27.790Z,3.10
2019-03-01T18:07:59.972Z,2.90
2019-03-01T18:10:35.004Z,2.90
2019-03-01T18:13:05.831Z,2.53
2019-03-01T18:15:36.113Z,3.23
2019-03-01T18:18:08.976Z,2.97
2019-03-01T18:20:40.771Z,2.53
2019-03-01T18:23:11.995Z,2.60
2019-03-01T18:25:42.546Z,2.60
2019-03-01T18:28:13.847Z,2.20
2019-03-01T18:30:45.143Z,2.63
2019-03-01T18:33:21.231Z,1.90
2019-03-01T18:35:55.909Z,2.90
2019-03-01T18:38:27.709Z,2.93
2019-03-01T18:40:57.809Z,3.37
2019-03-01T18:43:27.806Z,2.53
2019-03-01T18:45:58.356Z,2.90
2019-03-01T18:48:28.928Z,3.20
2019-03-01T18:50:59.996Z,3.63
2019-03-01T18:53:32.950Z,3.47
2019-03-01T18:56:03.750Z,2.43
2019-03-01T18:58:34.433Z,3.03
2019-03-01T19:01:07.719Z,3.20
2019-03-01T19:03:40.166Z,3.50
2019-03-01T19:06:12.798Z,3.13
2019-03-01T19:08:42.302Z,2.77
2019-03-01T19:11:12.529Z,2.53
2019-03-01T19:13:44.600Z,3.03
2019-03-01T19:16:14.217Z,2.33
2019-03-01T19:18:48.185Z,3.00
2019-03-01T19:21:17.327Z,2.70
2019-03-01T19:23:48.964Z,3.13
2019-03-01T19:26:18.854Z,2.87
2019-03-01T19:28:48.382Z,2.47
2019-03-01T19:31:18.019Z,2.17
2019-03-01T19:33:49.215Z,2.50
2019-03-01T19:36:20.253Z,2.20
2019-03-01T19:38:51.168Z,3.00
2019-03-01T19:41:24.014Z,3.00
2019-03-01T19:43:57.632Z,4.10
2019-03-01T19:46:27.117Z,4.10
2019-03-01T19:48:59.088Z,2.53
2019-03-01T19:51:29.610Z,2.33
2019-03-01T19:54:01.140Z,2.93
2019-03-01T19:56:32.006Z,2.27
2019-03-01T19:59:02.293Z,2.23
2019-03-01T20:01:32.162Z,1.40
2019-03-01T20:04:01.821Z,2.27
2019-03-01T20:06:32.112Z,2.17
2019-03-01T20:09:05.321Z,2.43
2019-03-01T20:11:35.964Z,1.80
2019-03-01T20:14:07.369Z,1.97
2019-03-01T20:16:36.913Z,1.73
2019-03-01T20:19:07.761Z,1.70
2019-03-01T20:21:41.345Z,3.53
2019-03-01T20:24:10.892Z,2.67
2019-03-01T20:26:41.708Z,2.20
2019-03-01T20:29:14.099Z,2.27
2019-03-01T20:31:47.834Z,1.60
2019-03-01T20:34:19.019Z,2.23
2019-03-01T20:36:49.634Z,2.17
2019-03-01T20:39:20.489Z,2.97
2019-03-01T20:41:50.450Z,3.20
2019-03-01T20:44:22.961Z,3.13
2019-03-01T20:46:54.349Z,2.57
2019-03-01T20:49:24.228Z,2.20
2019-03-01T20:51:54.718Z,3.10
2019-03-01T20:54:25.693Z,3.27
2019-03-01T20:56:57.445Z,3.17
2019-03-01T20:59:29.969Z,3.03
2019-03-01T21:01:59.556Z,3.27
2019-03-01T21:04:29.866Z,3.20
2019-03-01T21:06:59.745Z,3.10
2019-03-01T21:09:32.147Z,2.67
2019-03-01T21:12:02.890Z,2.90
2019-03-01T21:14:32.935Z,3.20
2019-03-01T21:17:02.778Z,3.33
2019-03-01T21:19:33.650Z,3.20
2019-03-01T21:22:04.720Z,3.53
2019-03-01T21:24:36.019Z,2.53
2019-03-01T21:27:05.482Z,2.60
2019-03-01T21:29:35.392Z,3.60
2019-03-01T21:32:06.019Z,2.50
2019-03-01T21:34:39.360Z,3.30
2019-03-01T21:37:10.496Z,2.70
2019-03-01T21:39:40.815Z,2.80
2019-03-01T21:42:16.908Z,2.70
2019-03-01T21:44:46.750Z,2.47
2019-03-01T21:47:16.322Z,3.57
2019-03-01T21:49:46.737Z,2.50
2019-03-01T21:52:18.833Z,1.70
2019-03-01T21:54:52.075Z,2.57
2019-03-01T21:57:21.603Z,3.57
2019-03-01T21:59:52.518Z,2.90
2019-03-01T22:02:25.327Z,2.40
2019-03-01T22:04:56.868Z,2.90
2019-03-01T22:07:27.108Z,3.20
2019-03-01T22:09:59.624Z,2.67
2019-03-01T22:12:29.696Z,2.40
2019-03-01T22:15:00.040Z,2.63
2019-03-01T22:17:33.595Z,2.20
2019-03-01T22:20:05.734Z,3.73
2019-03-01T22:22:37.851Z,2.60
2019-03-01T22:25:13.448Z,2.50
2019-03-01T22:27:43.820Z,2.20
2019-03-01T22:30:23.018Z,2.73
2019-03-01T22:32:54.412Z,3.40
2019-03-01T22:35:24.463Z,3.03
2019-03-01T22:37:54.220Z,3.40
2019-03-01T22:40:27.910Z,3.83
2019-03-01T22:42:59.016Z,3.50
2019-03-01T22:45:31.442Z,3.20
2019-03-01T22:48:01.698Z,3.00
2019-03-01T22:50:34.065Z,2.90
2019-03-01T22:53:03.253Z,3.77
2019-03-01T22:55:37.636Z,3.23
2019-03-01T22:58:07.967Z,4.03
2019-03-01T23:01:12.460Z,3.50
2019-03-01T23:03:44.787Z,3.60
2019-03-01T23:06:15.591Z,3.30
2019-03-01T23:08:45.265Z,4.20
2019-03-01T23:11:23.337Z,3.57
2019-03-01T23:13:55.776Z,3.73
2019-03-01T23:16:25.046Z,3.90
2019-03-01T23:18:57.226Z,4.37
2019-03-01T23:21:27.693Z,3.93
2019-03-01T23:23:59.702Z,3.47
2019-03-01T23:26:31.024Z,3.97
2019-03-01T23:29:01.789Z,3.50
2019-03-01T23:31:31.453Z,3.53
2019-03-01T23:34:03.652Z,3.47
2019-03-01T23:36:35.659Z,3.93
2019-03-01T23:39:11.346Z,3.83
2019-03-01T23:41:46.046Z,3.80
2019-03-01T23:44:15.573Z,4.33
2019-03-01T23:46:48.280Z,3.80
2019-03-01T23:49:20.588Z,5.27
2019-03-01T23:51:52.043Z,4.67
2019-03-01T23:54:24.855Z,4.60
2019-03-01T23:56:55.284Z,4.93
2019-03-01T23:59:26.646Z,5.13
